sensor_id;sensor_type;location;lat;lon;timestamp;temperature;humidity
22682;DHT22;11508;50.856;4.380;2022-09-12T00:01:30;18.80;83.00
22682;DHT22;11508;50.856;4.380;2022-09-12T00:03:58;18.80;82.70
22682;DHT22;11508;50.856;4.380;2022-09-12T00:06:30;18.90;83.10
22682;DHT22;11508;50.856;4.380;2022-09-12T00:08:58;18.80;83.40
22682;DHT22;11508;50.856;4.380;2022-09-12T00:11:25;18.80;84.40
22682;DHT22;11508;50.856;4.380;2022-09-12T00:13:55;18.80;84.50
22682;DHT22;11508;50.856;4.380;2022-09-12T00:16:23;18.80;85.60
22682;DHT22;11508;50.856;4.380;2022-09-12T00:18:49;18.70;88.80
22682;DHT22;11508;50.856;4.380;2022-09-12T00:21:16;18.50;94.20
22682;DHT22;11508;50.856;4.380;2022-09-12T00:23:42;18.40;97.10
22682;DHT22;11508;50.856;4.380;2022-09-12T00:26:09;18.50;96.30
22682;DHT22;11508;50.856;4.380;2022-09-12T00:28:36;18.50;94.10
22682;DHT22;11508;50.856;4.380;2022-09-12T00:31:04;18.60;92.70
22682;DHT22;11508;50.856;4.380;2022-09-12T00:33:31;18.60;92.40
22682;DHT22;11508;50.856;4.380;2022-09-12T00:35:57;18.60;94.00
22682;DHT22;11508;50.856;4.380;2022-09-12T00:38:22;18.60;92.90
22682;DHT22;11508;50.856;4.380;2022-09-12T00:40:48;18.70;92.40
22682;DHT22;11508;50.856;4.380;2022-09-12T00:46:24;18.60;93.40
22682;DHT22;11508;50.856;4.380;2022-09-12T00:51:31;18.50;96.50
22682;DHT22;11508;50.856;4.380;2022-09-12T00:53:59;18.40;96.20
22682;DHT22;11508;50.856;4.380;2022-09-12T00:56:28;18.40;96.40
22682;DHT22;11508;50.856;4.380;2022-09-12T00:59:05;18.40;97.20
22682;DHT22;11508;50.856;4.380;2022-09-12T01:01:33;18.30;98.40
22682;DHT22;11508;50.856;4.380;2022-09-12T01:03:59;18.30;98.80
22682;DHT22;11508;50.856;4.380;2022-09-12T01:06:35;18.30;98.20
22682;DHT22;11508;50.856;4.380;2022-09-12T01:09:02;18.20;99.90
22682;DHT22;11508;50.856;4.380;2022-09-12T01:11:35;18.20;99.90
22682;DHT22;11508;50.856;4.380;2022-09-12T01:14:02;18.10;99.90
22682;DHT22;11508;50.856;4.380;2022-09-12T01:16:27;18.10;99.90
22682;DHT22;11508;50.856;4.380;2022-09-12T01:21:58;18.20;99.90
22682;DHT22;11508;50.856;4.380;2022-09-12T01:30:15;18.10;99.90
22682;DHT22;11508;50.856;4.380;2022-09-12T01:38:38;18.00;99.90
22682;DHT22;11508;50.856;4.380;2022-09-12T01:41:18;18.00;99.90
22682;DHT22;11508;50.856;4.380;2022-09-12T01:43:59;18.00;99.90
22682;DHT22;11508;50.856;4.380;2022-09-12T01:46:41;17.90;99.90
22682;DHT22;11508;50.856;4.380;2022-09-12T01:49:28;17.70;99.90
22682;DHT22;11508;50.856;4.380;2022-09-12T01:52:04;17.70;99.90
22682;DHT22;11508;50.856;4.380;2022-09-12T01:57:26;17.90;99.90
22682;DHT22;11508;50.856;4.380;2022-09-12T01:59:58;17.90;99.90
22682;DHT22;11508;50.856;4.380;2022-09-12T02:02:38;17.90;99.90
22682;DHT22;11508;50.856;4.380;2022-09-12T02:05:09;17.90;99.90
22682;DHT22;11508;50.856;4.380;2022-09-12T02:07:43;17.90;99.90
22682;DHT22;11508;50.856;4.380;2022-09-12T02:12:47;17.50;99.90
22682;DHT22;11508;50.856;4.380;2022-09-12T02:15:17;17.50;99.90
22682;DHT22;11508;50.856;4.380;2022-09-12T02:17:48;17.50;99.90
22682;DHT22;11508;50.856;4.380;2022-09-12T02:20:18;17.70;99.90
22682;DHT22;11508;50.856;4.380;2022-09-12T02:22:47;17.60;99.90
22682;DHT22;11508;50.856;4.380;2022-09-12T02:25:16;17.70;99.90
22682;DHT22;11508;50.856;4.380;2022-09-12T02:28:01;17.70;99.90
22682;DHT22;11508;50.856;4.380;2022-09-12T02:30:31;17.60;99.90
22682;DHT22;11508;50.856;4.380;2022-09-12T02:33:07;17.60;99.90
22682;DHT22;11508;50.856;4.380;2022-09-12T02:40:55;17.70;99.90
22682;DHT22;11508;50.856;4.380;2022-09-12T02:43:21;17.70;99.90
22682;DHT22;11508;50.856;4.380;2022-09-12T02:45:47;17.50;99.90
22682;DHT22;11508;50.856;4.380;2022-09-12T02:48:18;17.50;99.90
22682;DHT22;11508;50.856;4.380;2022-09-12T02:50:45;17.50;99.90
22682;DHT22;11508;50.856;4.380;2022-09-12T02:53:11;17.50;99.90
22682;DHT22;11508;50.856;4.380;2022-09-12T02:55:39;17.50;99.90
22682;DHT22;11508;50.856;4.380;2022-09-12T02:58:10;17.40;99.90
22682;DHT22;11508;50.856;4.380;2022-09-12T03:00:47;17.30;99.90
22682;DHT22;11508;50.856;4.380;2022-09-12T03:03:59;17.40;99.90
22682;DHT22;11508;50.856;4.380;2022-09-12T03:09:29;17.40;99.90
22682;DHT22;11508;50.856;4.380;2022-09-12T03:21:01;17.10;99.90
22682;DHT22;11508;50.856;4.380;2022-09-12T03:23:53;17.10;99.90
22682;DHT22;11508;50.856;4.380;2022-09-12T03:26:29;17.20;99.90
22682;DHT22;11508;50.856;4.380;2022-09-12T03:28:58;17.30;99.90
22682;DHT22;11508;50.856;4.380;2022-09-12T03:31:24;17.30;99.90
22682;DHT22;11508;50.856;4.380;2022-09-12T03:33:50;17.30;99.90
22682;DHT22;11508;50.856;4.380;2022-09-12T03:36:22;17.30;99.90
22682;DHT22;11508;50.856;4.380;2022-09-12T03:38:48;17.30;99.90
22682;DHT22;11508;50.856;4.380;2022-09-12T03:41:14;17.30;99.90
22682;DHT22;11508;50.856;4.380;2022-09-12T03:43:40;17.20;99.90
22682;DHT22;11508;50.856;4.380;2022-09-12T03:46:06;17.30;99.90
22682;DHT22;11508;50.856;4.380;2022-09-12T03:48:32;17.20;99.90
22682;DHT22;11508;50.856;4.380;2022-09-12T03:51:05;17.20;99.90
22682;DHT22;11508;50.856;4.380;2022-09-12T03:53:31;17.20;99.90
22682;DHT22;11508;50.856;4.380;2022-09-12T03:55:57;17.10;99.90
22682;DHT22;11508;50.856;4.380;2022-09-12T03:58:23;17.00;99.90
22682;DHT22;11508;50.856;4.380;2022-09-12T04:00:49;17.00;99.90
22682;DHT22;11508;50.856;4.380;2022-09-12T04:03:16;17.10;99.90
22682;DHT22;11508;50.856;4.380;2022-09-12T04:05:43;17.10;99.90
22682;DHT22;11508;50.856;4.380;2022-09-12T04:08:09;17.10;99.90
22682;DHT22;11508;50.856;4.380;2022-09-12T04:10:35;17.10;99.90
22682;DHT22;11508;50.856;4.380;2022-09-12T04:13:00;17.00;99.90
22682;DHT22;11508;50.856;4.380;2022-09-12T04:15:26;16.90;99.90
22682;DHT22;11508;50.856;4.380;2022-09-12T04:17:52;17.00;99.90
22682;DHT22;11508;50.856;4.380;2022-09-12T04:20:17;17.00;99.90
22682;DHT22;11508;50.856;4.380;2022-09-12T04:22:43;17.00;99.90
22682;DHT22;11508;50.856;4.380;2022-09-12T04:25:09;16.90;99.90
22682;DHT22;11508;50.856;4.380;2022-09-12T04:27:36;17.00;99.90
22682;DHT22;11508;50.856;4.380;2022-09-12T04:30:02;16.90;99.90
22682;DHT22;11508;50.856;4.380;2022-09-12T04:32:29;16.70;99.90
22682;DHT22;11508;50.856;4.380;2022-09-12T04:34:56;16.60;99.90
22682;DHT22;11508;50.856;4.380;2022-09-12T04:37:22;16.50;99.90
22682;DHT22;11508;50.856;4.380;2022-09-12T04:39:49;16.60;99.90
22682;DHT22;11508;50.856;4.380;2022-09-12T04:42:15;16.60;99.90
22682;DHT22;11508;50.856;4.380;2022-09-12T04:44:41;16.60;99.90
22682;DHT22;11508;50.856;4.380;2022-09-12T04:47:07;16.60;99.90
22682;DHT22;11508;50.856;4.380;2022-09-12T04:49:33;16.80;99.90
22682;DHT22;11508;50.856;4.380;2022-09-12T04:51:59;16.90;99.90
22682;DHT22;11508;50.856;4.380;2022-09-12T04:54:24;17.00;99.90
22682;DHT22;11508;50.856;4.380;2022-09-12T04:56:51;17.00;99.90
22682;DHT22;11508;50.856;4.380;2022-09-12T04:59:18;16.90;99.90
22682;DHT22;11508;50.856;4.380;2022-09-12T05:01:45;16.70;99.90
22682;DHT22;11508;50.856;4.380;2022-09-12T05:04:11;16.60;99.90
22682;DHT22;11508;50.856;4.380;2022-09-12T05:06:39;16.80;99.90
22682;DHT22;11508;50.856;4.380;2022-09-12T05:09:07;16.70;99.90
22682;DHT22;11508;50.856;4.380;2022-09-12T05:11:36;16.70;99.90
22682;DHT22;11508;50.856;4.380;2022-09-12T05:14:02;16.60;99.90
22682;DHT22;11508;50.856;4.380;2022-09-12T05:16:28;16.60;99.90
22682;DHT22;11508;50.856;4.380;2022-09-12T05:18:56;16.60;99.90
22682;DHT22;11508;50.856;4.380;2022-09-12T05:21:23;16.50;99.90
22682;DHT22;11508;50.856;4.380;2022-09-12T05:23:53;16.40;99.90
22682;DHT22;11508;50.856;4.380;2022-09-12T05:26:20;16.40;99.90
22682;DHT22;11508;50.856;4.380;2022-09-12T05:28:46;16.30;99.90
22682;DHT22;11508;50.856;4.380;2022-09-12T05:31:14;16.40;99.90
22682;DHT22;11508;50.856;4.380;2022-09-12T05:33:43;16.30;99.90
22682;DHT22;11508;50.856;4.380;2022-09-12T05:36:17;16.40;99.90
22682;DHT22;11508;50.856;4.380;2022-09-12T05:38:44;16.40;99.90
22682;DHT22;11508;50.856;4.380;2022-09-12T05:41:13;16.40;99.90
22682;DHT22;11508;50.856;4.380;2022-09-12T05:43:40;16.40;99.90
22682;DHT22;11508;50.856;4.380;2022-09-12T05:46:12;16.50;99.90
22682;DHT22;11508;50.856;4.380;2022-09-12T05:48:40;16.50;99.90
22682;DHT22;11508;50.856;4.380;2022-09-12T05:51:12;16.50;99.90
22682;DHT22;11508;50.856;4.380;2022-09-12T05:53:39;16.40;99.90
22682;DHT22;11508;50.856;4.380;2022-09-12T05:56:11;16.50;99.90
22682;DHT22;11508;50.856;4.380;2022-09-12T05:58:39;16.60;99.90
22682;DHT22;11508;50.856;4.380;2022-09-12T06:01:11;16.60;99.90
22682;DHT22;11508;50.856;4.380;2022-09-12T06:03:46;16.50;99.90
22682;DHT22;11508;50.856;4.380;2022-09-12T06:06:14;16.50;99.90
22682;DHT22;11508;50.856;4.380;2022-09-12T06:08:43;16.50;99.90
22682;DHT22;11508;50.856;4.380;2022-09-12T06:11:12;16.60;99.90
22682;DHT22;11508;50.856;4.380;2022-09-12T06:13:39;16.60;99.90
22682;DHT22;11508;50.856;4.380;2022-09-12T06:16:11;16.70;99.90
22682;DHT22;11508;50.856;4.380;2022-09-12T06:18:38;16.80;99.90
22682;DHT22;11508;50.856;4.380;2022-09-12T06:21:06;16.70;99.90
22682;DHT22;11508;50.856;4.380;2022-09-12T06:23:33;16.80;99.90
22682;DHT22;11508;50.856;4.380;2022-09-12T06:25:59;16.70;99.90
22682;DHT22;11508;50.856;4.380;2022-09-12T06:28:25;16.60;99.90
22682;DHT22;11508;50.856;4.380;2022-09-12T06:30:51;16.60;99.90
22682;DHT22;11508;50.856;4.380;2022-09-12T06:33:17;16.60;99.90
22682;DHT22;11508;50.856;4.380;2022-09-12T06:35:43;16.70;99.90
22682;DHT22;11508;50.856;4.380;2022-09-12T06:38:09;16.70;99.90
22682;DHT22;11508;50.856;4.380;2022-09-12T06:40:44;16.80;99.90
22682;DHT22;11508;50.856;4.380;2022-09-12T06:43:13;16.80;99.90
22682;DHT22;11508;50.856;4.380;2022-09-12T06:45:46;16.80;99.90
22682;DHT22;11508;50.856;4.380;2022-09-12T06:48:12;16.80;99.90
22682;DHT22;11508;50.856;4.380;2022-09-12T06:50:38;16.80;99.90
22682;DHT22;11508;50.856;4.380;2022-09-12T06:53:03;16.80;99.90
22682;DHT22;11508;50.856;4.380;2022-09-12T06:55:29;16.90;99.90
22682;DHT22;11508;50.856;4.380;2022-09-12T06:58:07;16.90;99.90
22682;DHT22;11508;50.856;4.380;2022-09-12T07:00:33;17.00;99.90
22682;DHT22;11508;50.856;4.380;2022-09-12T07:02:59;17.00;99.90
22682;DHT22;11508;50.856;4.380;2022-09-12T07:05:24;17.20;99.90
22682;DHT22;11508;50.856;4.380;2022-09-12T07:07:50;17.20;99.90
22682;DHT22;11508;50.856;4.380;2022-09-12T07:10:16;17.30;99.90
22682;DHT22;11508;50.856;4.380;2022-09-12T07:12:42;17.30;99.90
22682;DHT22;11508;50.856;4.380;2022-09-12T07:15:08;17.40;99.90
22682;DHT22;11508;50.856;4.380;2022-09-12T07:17:34;17.40;99.90
22682;DHT22;11508;50.856;4.380;2022-09-12T07:20:01;17.60;99.90
22682;DHT22;11508;50.856;4.380;2022-09-12T07:22:26;17.80;99.70
22682;DHT22;11508;50.856;4.380;2022-09-12T07:24:52;17.90;97.10
22682;DHT22;11508;50.856;4.380;2022-09-12T07:27:20;17.80;97.40
22682;DHT22;11508;50.856;4.380;2022-09-12T07:29:45;18.00;96.60
22682;DHT22;11508;50.856;4.380;2022-09-12T07:32:11;18.20;94.30
22682;DHT22;11508;50.856;4.380;2022-09-12T07:34:39;18.40;91.90
22682;DHT22;11508;50.856;4.380;2022-09-12T07:37:05;18.40;88.50
22682;DHT22;11508;50.856;4.380;2022-09-12T07:39:30;18.50;90.30
22682;DHT22;11508;50.856;4.380;2022-09-12T07:41:56;18.60;86.70
22682;DHT22;11508;50.856;4.380;2022-09-12T07:44:24;18.70;79.10
22682;DHT22;11508;50.856;4.380;2022-09-12T07:46:49;18.80;76.40
22682;DHT22;11508;50.856;4.380;2022-09-12T07:49:15;18.80;74.90
22682;DHT22;11508;50.856;4.380;2022-09-12T07:51:41;18.90;72.40
22682;DHT22;11508;50.856;4.380;2022-09-12T07:54:08;19.00;71.10
22682;DHT22;11508;50.856;4.380;2022-09-12T07:56:34;19.10;68.30
22682;DHT22;11508;50.856;4.380;2022-09-12T07:59:00;19.20;69.50
22682;DHT22;11508;50.856;4.380;2022-09-12T08:01:31;19.40;67.90
22682;DHT22;11508;50.856;4.380;2022-09-12T08:10:41;19.80;94.60
22682;DHT22;11508;50.856;4.380;2022-09-12T08:13:10;19.90;99.90
22682;DHT22;11508;50.856;4.380;2022-09-12T08:15:36;20.00;99.90
22682;DHT22;11508;50.856;4.380;2022-09-12T08:18:02;20.00;98.30
22682;DHT22;11508;50.856;4.380;2022-09-12T08:20:28;19.90;98.30
22682;DHT22;11508;50.856;4.380;2022-09-12T08:22:54;19.90;99.90
22682;DHT22;11508;50.856;4.380;2022-09-12T08:25:20;20.00;97.70
22682;DHT22;11508;50.856;4.380;2022-09-12T08:27:47;20.20;96.10
22682;DHT22;11508;50.856;4.380;2022-09-12T08:30:13;20.20;95.90
22682;DHT22;11508;50.856;4.380;2022-09-12T08:32:38;20.40;96.40
22682;DHT22;11508;50.856;4.380;2022-09-12T08:35:04;20.40;92.70
22682;DHT22;11508;50.856;4.380;2022-09-12T08:37:30;20.60;97.60
22682;DHT22;11508;50.856;4.380;2022-09-12T08:39:56;20.60;93.80
22682;DHT22;11508;50.856;4.380;2022-09-12T08:42:46;20.60;95.30
22682;DHT22;11508;50.856;4.380;2022-09-12T08:45:17;20.60;95.50
22682;DHT22;11508;50.856;4.380;2022-09-12T08:47:45;20.70;92.80
22682;DHT22;11508;50.856;4.380;2022-09-12T08:50:18;21.00;91.20
22682;DHT22;11508;50.856;4.380;2022-09-12T08:55:31;21.60;89.10
22682;DHT22;11508;50.856;4.380;2022-09-12T09:03:50;22.40;81.60
22682;DHT22;11508;50.856;4.380;2022-09-12T09:20:52;22.50;90.40
22682;DHT22;11508;50.856;4.380;2022-09-12T09:23:26;22.30;87.10
22682;DHT22;11508;50.856;4.380;2022-09-12T09:29:16;22.60;43.90
22682;DHT22;11508;50.856;4.380;2022-09-12T09:31:18;22.20;50.50
22682;DHT22;11508;50.856;4.380;2022-09-12T09:33:47;22.10;54.50
22682;DHT22;11508;50.856;4.380;2022-09-12T09:36:46;22.50;39.80
22682;DHT22;11508;50.856;4.380;2022-09-12T09:42:40;22.80;60.00
22682;DHT22;11508;50.856;4.380;2022-09-12T09:45:20;22.80;50.50
22682;DHT22;11508;50.856;4.380;2022-09-12T09:50:20;22.40;56.70
22682;DHT22;11508;50.856;4.380;2022-09-12T09:52:46;22.20;54.50
22682;DHT22;11508;50.856;4.380;2022-09-12T09:55:20;22.00;52.00
22682;DHT22;11508;50.856;4.380;2022-09-12T09:57:47;22.50;50.20
22682;DHT22;11508;50.856;4.380;2022-09-12T10:00:35;22.80;43.60
22682;DHT22;11508;50.856;4.380;2022-09-12T10:05:50;23.10;52.80
22682;DHT22;11508;50.856;4.380;2022-09-12T10:08:22;24.00;52.30
22682;DHT22;11508;50.856;4.380;2022-09-12T10:11:04;25.20;46.30
22682;DHT22;11508;50.856;4.380;2022-09-12T10:16:05;27.60;47.80
22682;DHT22;11508;50.856;4.380;2022-09-12T10:18:34;27.70;42.10
22682;DHT22;11508;50.856;4.380;2022-09-12T10:21:01;26.70;23.00
22682;DHT22;11508;50.856;4.380;2022-09-12T10:23:35;26.20;17.40
22682;DHT22;11508;50.856;4.380;2022-09-12T10:26:07;25.90;34.70
22682;DHT22;11508;50.856;4.380;2022-09-12T10:28:50;25.30;43.30
22682;DHT22;11508;50.856;4.380;2022-09-12T10:31:26;25.50;37.80
22682;DHT22;11508;50.856;4.380;2022-09-12T10:33:59;25.40;26.20
22682;DHT22;11508;50.856;4.380;2022-09-12T10:36:37;25.10;41.50
22682;DHT22;11508;50.856;4.380;2022-09-12T10:39:04;25.90;30.30
22682;DHT22;11508;50.856;4.380;2022-09-12T10:41:38;26.20;36.20
22682;DHT22;11508;50.856;4.380;2022-09-12T10:44:06;26.80;28.00
22682;DHT22;11508;50.856;4.380;2022-09-12T10:46:32;27.80;34.10
22682;DHT22;11508;50.856;4.380;2022-09-12T10:49:28;26.70;37.80
22682;DHT22;11508;50.856;4.380;2022-09-12T10:51:55;26.50;24.20
22682;DHT22;11508;50.856;4.380;2022-09-12T10:54:25;26.70;33.30
22682;DHT22;11508;50.856;4.380;2022-09-12T11:00:13;26.90;23.90
22682;DHT22;11508;50.856;4.380;2022-09-12T11:03:05;26.90;20.30
22682;DHT22;11508;50.856;4.380;2022-09-12T11:08:11;26.70;9.70
22682;DHT22;11508;50.856;4.380;2022-09-12T11:10:54;27.90;15.90
22682;DHT22;11508;50.856;4.380;2022-09-12T11:18:38;30.50;14.10
22682;DHT22;11508;50.856;4.380;2022-09-12T11:39:53;28.60;1.00
22682;DHT22;11508;50.856;4.380;2022-09-12T11:42:34;29.10;1.00
22682;DHT22;11508;50.856;4.380;2022-09-12T11:45:21;28.90;1.00
22682;DHT22;11508;50.856;4.380;2022-09-12T11:47:53;28.10;1.00
22682;DHT22;11508;50.856;4.380;2022-09-12T11:50:37;29.00;1.00
22682;DHT22;11508;50.856;4.380;2022-09-12T11:53:16;29.20;1.00
22682;DHT22;11508;50.856;4.380;2022-09-12T11:55:57;27.80;1.00
22682;DHT22;11508;50.856;4.380;2022-09-12T11:58:27;28.60;1.00
22682;DHT22;11508;50.856;4.380;2022-09-12T12:01:09;29.10;1.00
22682;DHT22;11508;50.856;4.380;2022-09-12T12:03:41;29.70;1.00
22682;DHT22;11508;50.856;4.380;2022-09-12T12:08:47;29.50;1.00
22682;DHT22;11508;50.856;4.380;2022-09-12T12:11:30;29.30;1.00
22682;DHT22;11508;50.856;4.380;2022-09-12T12:14:13;29.50;1.00
22682;DHT22;11508;50.856;4.380;2022-09-12T12:16:40;28.50;1.00
22682;DHT22;11508;50.856;4.380;2022-09-12T12:21:42;28.70;1.00
22682;DHT22;11508;50.856;4.380;2022-09-12T12:29:09;29.40;1.00
22682;DHT22;11508;50.856;4.380;2022-09-12T12:34:45;28.50;1.00
22682;DHT22;11508;50.856;4.380;2022-09-12T12:40:21;28.10;1.00
22682;DHT22;11508;50.856;4.380;2022-09-12T12:47:53;28.90;99.90
22682;DHT22;11508;50.856;4.380;2022-09-12T12:50:22;28.60;99.90
22682;DHT22;11508;50.856;4.380;2022-09-12T12:52:59;27.80;99.90
22682;DHT22;11508;50.856;4.380;2022-09-12T12:58:28;28.30;99.90
22682;DHT22;11508;50.856;4.380;2022-09-12T13:01:17;27.40;1.00
22682;DHT22;11508;50.856;4.380;2022-09-12T13:04:02;27.00;1.00
22682;DHT22;11508;50.856;4.380;2022-09-12T13:06:41;27.30;1.00
22682;DHT22;11508;50.856;4.380;2022-09-12T13:09:08;27.10;99.90
22682;DHT22;11508;50.856;4.380;2022-09-12T13:11:42;26.70;99.90
22682;DHT22;11508;50.856;4.380;2022-09-12T13:17:15;27.80;1.00
22682;DHT22;11508;50.856;4.380;2022-09-12T13:19:44;27.40;1.00
22682;DHT22;11508;50.856;4.380;2022-09-12T13:22:10;27.50;99.90
22682;DHT22;11508;50.856;4.380;2022-09-12T13:24:47;28.10;99.90
22682;DHT22;11508;50.856;4.380;2022-09-12T13:27:19;28.40;99.90
22682;DHT22;11508;50.856;4.380;2022-09-12T13:29:45;28.60;1.00
22682;DHT22;11508;50.856;4.380;2022-09-12T13:32:11;28.70;99.90
22682;DHT22;11508;50.856;4.380;2022-09-12T13:35:06;28.40;99.90
22682;DHT22;11508;50.856;4.380;2022-09-12T13:43:12;27.40;99.90
22682;DHT22;11508;50.856;4.380;2022-09-12T13:45:44;27.20;99.90
22682;DHT22;11508;50.856;4.380;2022-09-12T13:48:22;27.30;99.90
22682;DHT22;11508;50.856;4.380;2022-09-12T13:50:58;27.40;99.90
22682;DHT22;11508;50.856;4.380;2022-09-12T13:53:30;27.30;99.90
22682;DHT22;11508;50.856;4.380;2022-09-12T13:55:58;27.70;99.90
22682;DHT22;11508;50.856;4.380;2022-09-12T13:58:25;27.10;99.90
22682;DHT22;11508;50.856;4.380;2022-09-12T14:01:12;26.80;99.90
22682;DHT22;11508;50.856;4.380;2022-09-12T14:06:53;26.80;99.90
22682;DHT22;11508;50.856;4.380;2022-09-12T14:09:24;26.70;99.90
22682;DHT22;11508;50.856;4.380;2022-09-12T14:11:51;26.80;99.90
22682;DHT22;11508;50.856;4.380;2022-09-12T14:14:36;26.70;99.90
22682;DHT22;11508;50.856;4.380;2022-09-12T14:19:59;26.30;1.00
22682;DHT22;11508;50.856;4.380;2022-09-12T14:22:26;26.20;99.90
22682;DHT22;11508;50.856;4.380;2022-09-12T14:24:55;26.10;99.90
22682;DHT22;11508;50.856;4.380;2022-09-12T14:27:23;26.20;99.90
22682;DHT22;11508;50.856;4.380;2022-09-12T14:30:21;26.50;99.90
22682;DHT22;11508;50.856;4.380;2022-09-12T14:36:09;26.10;99.90
22682;DHT22;11508;50.856;4.380;2022-09-12T14:38:43;26.10;99.90
22682;DHT22;11508;50.856;4.380;2022-09-12T14:41:10;26.30;99.90
22682;DHT22;11508;50.856;4.380;2022-09-12T14:43:43;26.20;99.90
22682;DHT22;11508;50.856;4.380;2022-09-12T14:46:17;26.20;99.90
22682;DHT22;11508;50.856;4.380;2022-09-12T14:48:54;26.10;99.90
22682;DHT22;11508;50.856;4.380;2022-09-12T14:51:30;26.10;99.90
22682;DHT22;11508;50.856;4.380;2022-09-12T14:53:56;26.10;99.90
22682;DHT22;11508;50.856;4.380;2022-09-12T14:56:37;25.90;99.90
22682;DHT22;11508;50.856;4.380;2022-09-12T14:59:39;25.90;99.90
22682;DHT22;11508;50.856;4.380;2022-09-12T15:04:46;25.90;99.90
22682;DHT22;11508;50.856;4.380;2022-09-12T15:09:53;25.80;99.90
22682;DHT22;11508;50.856;4.380;2022-09-12T15:12:19;25.80;99.90
22682;DHT22;11508;50.856;4.380;2022-09-12T15:14:45;25.80;99.90
22682;DHT22;11508;50.856;4.380;2022-09-12T15:17:10;25.80;99.90
22682;DHT22;11508;50.856;4.380;2022-09-12T15:19:36;25.80;99.90
22682;DHT22;11508;50.856;4.380;2022-09-12T15:22:01;25.80;99.90
22682;DHT22;11508;50.856;4.380;2022-09-12T15:24:27;25.90;99.90
22682;DHT22;11508;50.856;4.380;2022-09-12T15:26:53;25.90;99.90
22682;DHT22;11508;50.856;4.380;2022-09-12T15:29:19;26.00;99.90
22682;DHT22;11508;50.856;4.380;2022-09-12T15:31:46;26.10;99.90
22682;DHT22;11508;50.856;4.380;2022-09-12T15:34:12;26.20;99.90
22682;DHT22;11508;50.856;4.380;2022-09-12T15:36:38;26.20;99.90
22682;DHT22;11508;50.856;4.380;2022-09-12T15:39:03;26.30;99.90
22682;DHT22;11508;50.856;4.380;2022-09-12T15:41:36;26.30;34.40
22682;DHT22;11508;50.856;4.380;2022-09-12T15:44:08;26.30;1.00
22682;DHT22;11508;50.856;4.380;2022-09-12T15:46:35;26.30;14.30
22682;DHT22;11508;50.856;4.380;2022-09-12T15:49:03;26.40;1.00
22682;DHT22;11508;50.856;4.380;2022-09-12T15:51:28;26.20;38.10
22682;DHT22;11508;50.856;4.380;2022-09-12T15:53:54;26.20;99.90
22682;DHT22;11508;50.856;4.380;2022-09-12T15:56:21;26.20;99.90
22682;DHT22;11508;50.856;4.380;2022-09-12T15:58:47;26.00;99.90
22682;DHT22;11508;50.856;4.380;2022-09-12T16:01:14;25.90;99.90
22682;DHT22;11508;50.856;4.380;2022-09-12T16:03:40;25.90;99.90
22682;DHT22;11508;50.856;4.380;2022-09-12T16:06:07;25.90;99.90
22682;DHT22;11508;50.856;4.380;2022-09-12T16:08:34;25.90;99.90
22682;DHT22;11508;50.856;4.380;2022-09-12T16:11:08;25.80;22.50
22682;DHT22;11508;50.856;4.380;2022-09-12T16:13:35;25.70;1.00
22682;DHT22;11508;50.856;4.380;2022-09-12T16:16:01;25.60;1.00
22682;DHT22;11508;50.856;4.380;2022-09-12T16:18:28;25.60;1.00
22682;DHT22;11508;50.856;4.380;2022-09-12T16:20:54;25.60;1.00
22682;DHT22;11508;50.856;4.380;2022-09-12T16:23:20;25.60;1.00
22682;DHT22;11508;50.856;4.380;2022-09-12T16:26:02;25.60;49.10
22682;DHT22;11508;50.856;4.380;2022-09-12T16:28:29;25.70;99.90
22682;DHT22;11508;50.856;4.380;2022-09-12T16:31:00;25.70;6.80
22682;DHT22;11508;50.856;4.380;2022-09-12T16:33:27;25.80;1.00
22682;DHT22;11508;50.856;4.380;2022-09-12T16:36:00;25.90;1.00
22682;DHT22;11508;50.856;4.380;2022-09-12T16:38:27;25.90;1.00
22682;DHT22;11508;50.856;4.380;2022-09-12T16:41:10;25.90;7.70
22682;DHT22;11508;50.856;4.380;2022-09-12T16:43:37;25.90;42.70
22682;DHT22;11508;50.856;4.380;2022-09-12T16:46:04;25.70;22.50
22682;DHT22;11508;50.856;4.380;2022-09-12T16:48:31;25.70;1.00
22682;DHT22;11508;50.856;4.380;2022-09-12T16:50:58;25.80;1.00
22682;DHT22;11508;50.856;4.380;2022-09-12T16:53:28;25.80;99.90
22682;DHT22;11508;50.856;4.380;2022-09-12T16:55:54;25.70;92.20
22682;DHT22;11508;50.856;4.380;2022-09-12T16:58:20;25.70;99.90
22682;DHT22;11508;50.856;4.380;2022-09-12T17:00:45;25.90;99.90
22682;DHT22;11508;50.856;4.380;2022-09-12T17:03:11;25.90;24.20
22682;DHT22;11508;50.856;4.380;2022-09-12T17:05:37;25.80;31.50
22682;DHT22;11508;50.856;4.380;2022-09-12T17:08:03;25.70;99.90
22682;DHT22;11508;50.856;4.380;2022-09-12T17:10:30;25.80;1.00
22682;DHT22;11508;50.856;4.380;2022-09-12T17:12:57;25.80;1.00
22682;DHT22;11508;50.856;4.380;2022-09-12T17:15:22;25.70;1.00
22682;DHT22;11508;50.856;4.380;2022-09-12T17:17:48;25.60;1.00
22682;DHT22;11508;50.856;4.380;2022-09-12T17:20:16;25.60;1.00
22682;DHT22;11508;50.856;4.380;2022-09-12T17:22:42;25.60;1.00
22682;DHT22;11508;50.856;4.380;2022-09-12T17:25:08;25.60;1.00
22682;DHT22;11508;50.856;4.380;2022-09-12T17:27:34;25.60;1.00
22682;DHT22;11508;50.856;4.380;2022-09-12T17:30:01;25.60;1.00
22682;DHT22;11508;50.856;4.380;2022-09-12T17:32:26;25.70;99.90
22682;DHT22;11508;50.856;4.380;2022-09-12T17:34:52;25.70;99.90
22682;DHT22;11508;50.856;4.380;2022-09-12T17:37:18;25.80;99.90
22682;DHT22;11508;50.856;4.380;2022-09-12T17:39:45;25.60;1.00
22682;DHT22;11508;50.856;4.380;2022-09-12T17:42:11;25.60;99.90
22682;DHT22;11508;50.856;4.380;2022-09-12T17:44:37;25.40;1.00
22682;DHT22;11508;50.856;4.380;2022-09-12T17:47:03;25.40;1.00
22682;DHT22;11508;50.856;4.380;2022-09-12T17:49:28;25.30;1.00
22682;DHT22;11508;50.856;4.380;2022-09-12T17:51:56;25.30;1.00
22682;DHT22;11508;50.856;4.380;2022-09-12T17:54:22;25.40;1.00
22682;DHT22;11508;50.856;4.380;2022-09-12T17:56:49;25.40;1.00
22682;DHT22;11508;50.856;4.380;2022-09-12T17:59:19;25.40;1.00
22682;DHT22;11508;50.856;4.380;2022-09-12T18:01:45;25.40;1.00
22682;DHT22;11508;50.856;4.380;2022-09-12T18:04:29;25.30;1.00
22682;DHT22;11508;50.856;4.380;2022-09-12T18:06:56;25.20;1.00
22682;DHT22;11508;50.856;4.380;2022-09-12T18:09:22;25.30;1.00
22682;DHT22;11508;50.856;4.380;2022-09-12T18:11:50;25.40;99.90
22682;DHT22;11508;50.856;4.380;2022-09-12T18:14:16;25.30;1.00
22682;DHT22;11508;50.856;4.380;2022-09-12T18:16:42;25.20;1.00
22682;DHT22;11508;50.856;4.380;2022-09-12T18:19:08;25.20;1.00
22682;DHT22;11508;50.856;4.380;2022-09-12T18:21:35;25.10;1.00
22682;DHT22;11508;50.856;4.380;2022-09-12T18:24:01;25.10;1.00
22682;DHT22;11508;50.856;4.380;2022-09-12T18:26:28;25.00;24.50
22682;DHT22;11508;50.856;4.380;2022-09-12T18:28:54;25.10;23.10
22682;DHT22;11508;50.856;4.380;2022-09-12T18:31:23;25.00;13.80
22682;DHT22;11508;50.856;4.380;2022-09-12T18:33:50;25.00;83.60